createdAt,value
2019-06-07T22:16:48.844Z,73.50
2019-06-07T22:19:17.665Z,74.20
2019-06-07T22:23:10.643Z,74.50
2019-06-07T22:25:39.950Z,74.50
2019-06-07T22:28:10.222Z,74.60
2019-06-07T22:30:40.251Z,75.10
2019-06-07T22:33:10.626Z,75.00
2019-06-07T22:35:40.628Z,75.20
2019-06-07T22:38:10.443Z,75.60
2019-06-07T22:40:40.254Z,75.90
2019-06-07T22:43:10.312Z,76.20
2019-06-07T22:45:40.250Z,76.30
2019-06-07T22:48:11.308Z,76.50
2019-06-07T22:50:41.215Z,77.00
2019-06-07T22:53:11.429Z,77.30
2019-06-07T22:55:42.688Z,77.20
2019-06-07T22:58:12.610Z,77.80
2019-06-07T23:00:43.032Z,78.00
2019-06-07T23:03:16.770Z,78.10
2019-06-07T23:05:47.892Z,78.40
2019-06-07T23:08:19.005Z,78.70
2019-06-07T23:10:49.612Z,78.90
2019-06-07T23:13:21.443Z,79.20
2019-06-07T23:15:51.563Z,79.50
2019-06-07T23:18:24.706Z,79.90
2019-06-07T23:20:54.678Z,80.20
2019-06-07T23:23:24.548Z,80.50
2019-06-07T23:25:54.358Z,80.80
2019-06-07T23:28:24.283Z,81.00
2019-06-07T23:30:53.982Z,81.10
2019-06-07T23:33:23.668Z,81.30
2019-06-07T23:35:53.398Z,81.40
2019-06-07T23:38:23.170Z,81.60
2019-06-07T23:40:52.888Z,81.70
2019-06-07T23:43:22.579Z,81.70
2019-06-07T23:45:52.237Z,81.90
2019-06-07T23:48:21.910Z,82.20
2019-06-07T23:50:51.718Z,82.50
2019-06-07T23:53:22.195Z,82.70
2019-06-07T23:55:53.119Z,82.70
2019-06-07T23:58:22.887Z,82.90
